Time;durP1;ratioP1;P1;durP2;ratioP2;P2;SDS_P1;SDS_P2;PMS_P1;PMS_P2;Temp;Humidity;BMP_temperature;BMP_pressure;BME280_temperature;BME280_humidity;BME280_pressure;Samples;Min_cycle;Max_cycle;Signal;HPM_P1;HPM_P2
2023/06/04 00:01:08;;;;;;;7.33;1.90;;;;;;;13.39;73.84;102198.22;5033053;28;20030;-71
2023/06/04 00:03:34;;;;;;;6.47;1.50;;;;;;;13.40;74.33;102201.81;5041812;28;20499;-71
2023/06/04 00:05:59;;;;;;;3.20;1.53;;;;;;;13.36;73.80;102204.09;5034520;28;20029;-71
2023/06/04 00:08:25;;;;;;;9.23;2.83;;;;;;;13.33;74.37;102198.06;5035308;28;20461;-71
2023/06/04 00:10:51;;;;;;;2.57;1.63;;;;;;;13.32;74.33;102200.00;5033018;28;20052;-71
2023/06/04 00:13:17;;;;;;;3.27;1.87;;;;;;;13.28;74.88;102197.78;5037599;28;20092;-71
2023/06/04 00:15:42;;;;;;;4.53;1.77;;;;;;;13.28;74.43;102201.38;5032372;28;20102;-71
2023/06/04 00:18:08;;;;;;;5.13;1.90;;;;;;;13.24;74.80;102201.94;5036726;28;20106;-70
2023/06/04 00:20:33;;;;;;;7.10;1.77;;;;;;;13.19;74.61;102207.97;5040612;28;20033;-70
2023/06/04 00:22:59;;;;;;;2.90;1.93;;;;;;;13.16;75.49;102204.72;5026589;28;20025;-70
2023/06/04 00:25:24;;;;;;;7.67;2.23;;;;;;;13.12;75.28;102209.72;5027513;28;20033;-73
2023/06/04 00:27:49;;;;;;;6.53;1.97;;;;;;;13.04;75.87;102200.66;5041199;28;20067;-73
2023/06/04 00:30:15;;;;;;;3.50;2.80;;;;;;;12.99;76.30;102203.97;5025798;28;20022;-72
2023/06/04 00:32:40;;;;;;;4.33;2.37;;;;;;;13.03;76.34;102208.06;5038328;28;20419;-72
2023/06/04 00:35:06;;;;;;;6.87;2.23;;;;;;;13.08;75.94;102204.78;5041545;28;20071;-72
2023/06/04 00:37:32;;;;;;;2.42;1.70;;;;;;;13.03;76.15;102210.81;5032456;28;20077;-72
2023/06/04 00:39:58;;;;;;;4.00;1.90;;;;;;;12.96;76.23;102200.72;5040798;28;20052;-72
2023/06/04 00:42:24;;;;;;;8.35;2.13;;;;;;;12.99;76.49;102209.47;5044853;28;20029;-72
2023/06/04 00:44:49;;;;;;;3.43;1.90;;;;;;;12.90;77.67;102199.50;5039984;28;20040;-72
2023/06/04 00:47:15;;;;;;;5.97;1.90;;;;;;;12.94;77.09;102211.00;5030855;28;20025;-72
2023/06/04 00:49:41;;;;;;;4.82;1.73;;;;;;;12.89;77.19;102207.94;5038838;28;20048;-72
2023/06/04 00:52:17;;;;;;;4.20;2.30;;;;;;;12.82;77.17;102204.19;5038947;28;20057;-72
2023/06/04 00:54:43;;;;;;;5.85;1.80;;;;;;;12.78;77.05;102205.56;5036082;28;20075;-72
2023/06/04 00:57:11;;;;;;;5.63;2.00;;;;;;;12.80;77.60;102209.03;5030034;28;20429;-72
2023/06/04 00:59:38;;;;;;;5.40;2.15;;;;;;;12.76;77.96;102202.16;5040672;28;20061;-72
2023/06/04 01:02:22;;;;;;;8.85;2.30;;;;;;;12.70;77.93;102200.13;5031050;28;20024;-72
2023/06/04 01:05:05;;;;;;;2.08;1.80;;;;;;;12.71;77.63;102202.66;5041037;28;20041;-73
2023/06/04 01:07:30;;;;;;;10.32;2.30;;;;;;;12.72;77.52;102206.28;5028789;28;20485;-72
2023/06/04 01:09:56;;;;;;;4.97;2.03;;;;;;;12.71;77.82;102205.41;5039992;28;20029;-72
2023/06/04 01:12:22;;;;;;;7.97;2.67;;;;;;;12.65;78.42;102210.78;5033469;28;20429;-73
2023/06/04 01:14:47;;;;;;;4.10;2.20;;;;;;;12.62;78.41;102212.00;5036974;28;20196;-73
2023/06/04 01:17:28;;;;;;;2.73;2.03;;;;;;;12.55;78.90;102216.47;5032728;28;20358;-72
2023/06/04 01:20:08;;;;;;;5.50;2.47;;;;;;;12.48;79.34;102215.47;5039442;28;20417;-73
2023/06/04 01:22:48;;;;;;;3.72;2.55;;;;;;;12.43;79.75;102219.81;5032238;28;20029;-73
2023/06/04 01:25:31;;;;;;;4.35;2.60;;;;;;;12.38;79.94;102219.47;5025510;28;20161;-73
2023/06/04 01:27:58;;;;;;;5.32;2.90;;;;;;;12.37;80.39;102220.47;5030745;28;20029;-72
2023/06/04 01:30:26;;;;;;;5.30;2.10;;;;;;;12.30;80.33;102211.22;5034253;28;20453;-73
2023/06/04 01:32:53;;;;;;;4.00;2.17;;;;;;;12.28;80.93;102214.13;5040100;28;20532;-73
2023/06/04 01:35:20;;;;;;;3.75;2.78;;;;;;;12.21;80.78;102204.91;5039846;28;21639;-73
2023/06/04 01:37:46;;;;;;;10.23;2.20;;;;;;;12.23;80.66;102210.22;5038219;28;20029;-72
2023/06/04 01:40:12;;;;;;;5.77;2.57;;;;;;;12.19;80.28;102209.72;5032135;28;20110;-72
2023/06/04 01:42:37;;;;;;;5.03;2.20;;;;;;;12.19;80.61;102211.59;5042762;28;20506;-74
2023/06/04 01:45:03;;;;;;;3.57;2.20;;;;;;;12.20;81.48;102208.69;5039075;28;20034;-72
2023/06/04 01:47:28;;;;;;;6.83;2.73;;;;;;;12.14;81.24;102206.63;5036929;28;20027;-73
2023/06/04 01:49:54;;;;;;;6.20;2.43;;;;;;;12.13;81.63;102199.44;5039182;28;20017;-73
2023/06/04 01:52:21;;;;;;;4.60;2.40;;;;;;;12.12;81.86;102194.09;5031702;28;20248;-72
2023/06/04 01:54:48;;;;;;;6.68;2.67;;;;;;;12.05;81.39;102195.81;5035454;28;20068;-72
2023/06/04 01:57:14;;;;;;;2.92;2.45;;;;;;;12.06;82.43;102195.66;5035295;28;20033;-73
2023/06/04 01:59:41;;;;;;;4.83;2.20;;;;;;;12.04;82.47;102184.00;5034714;28;20029;-73
2023/06/04 02:02:06;;;;;;;;;;;;;;;12.05;81.56;102184.81;5029617;28;20033;-72
2023/06/04 02:04:32;;;;;;;4.45;2.90;;;;;;;11.98;82.45;102190.19;5039353;28;19920;-73
2023/06/04 02:06:59;;;;;;;6.20;2.90;;;;;;;11.96;82.46;102185.91;5028848;28;20021;-72
2023/06/04 02:09:25;;;;;;;5.15;2.30;;;;;;;11.88;82.33;102195.00;5035683;28;20064;-73
2023/06/04 02:11:51;;;;;;;3.28;1.95;;;;;;;11.90;82.26;102192.91;5036607;28;20032;-73
2023/06/04 02:14:16;;;;;;;3.38;2.40;;;;;;;11.90;82.19;102198.41;5037215;28;20032;-73
2023/06/04 02:16:42;;;;;;;5.03;2.60;;;;;;;11.89;82.68;102198.56;5036640;28;20024;-73
2023/06/04 02:19:07;;;;;;;5.50;2.20;;;;;;;11.89;82.14;102193.09;5040372;28;20472;-73
2023/06/04 02:21:33;;;;;;;5.30;2.67;;;;;;;11.80;82.88;102196.88;5035354;28;20569;-72
2023/06/04 02:23:58;;;;;;;3.65;2.15;;;;;;;11.76;82.44;102195.50;5040018;28;20408;-72
2023/06/04 02:26:24;;;;;;;5.27;2.30;;;;;;;11.68;83.10;102201.00;5034021;28;20068;-72
2023/06/04 02:28:50;;;;;;;2.35;2.15;;;;;;;11.68;82.84;102198.28;5035213;28;20100;-72
2023/06/04 02:31:15;;;;;;;5.73;2.57;;;;;;;11.67;83.22;102199.28;5030699;28;20624;-72
2023/06/04 02:33:41;;;;;;;7.37;2.50;;;;;;;11.67;82.97;102208.38;5038974;28;20472;-73
2023/06/04 02:36:08;;;;;;;6.07;2.57;;;;;;;11.62;82.97;102202.53;5037432;28;20382;-72
2023/06/04 02:38:34;;;;;;;7.00;2.40;;;;;;;11.63;83.62;102206.16;5036579;28;20024;-75
2023/06/04 02:41:00;;;;;;;5.83;2.57;;;;;;;11.62;82.92;102205.28;5029001;28;20029;-75
2023/06/04 02:43:25;;;;;;;6.37;2.53;;;;;;;11.61;82.42;102202.72;5038380;28;20025;-75
2023/06/04 02:45:51;;;;;;;4.27;2.37;;;;;;;11.58;83.03;102211.25;5036331;28;20079;-75
2023/06/04 02:48:16;;;;;;;5.33;3.20;;;;;;;11.57;83.02;102209.53;5036327;28;20445;-76
2023/06/04 02:50:42;;;;;;;2.83;2.40;;;;;;;11.54;83.75;102207.97;5036776;28;20112;-75
2023/06/04 02:53:08;;;;;;;5.30;2.60;;;;;;;11.60;83.32;102212.84;5036924;28;20036;-75
2023/06/04 02:55:33;;;;;;;10.07;2.60;;;;;;;11.55;83.22;102212.47;5035793;28;20563;-76
2023/06/04 02:58:00;;;;;;;8.13;2.80;;;;;;;11.49;83.47;102210.41;5039075;28;20020;-75
2023/06/04 03:00:28;;;;;;;5.75;2.80;;;;;;;11.45;83.85;102211.75;5037128;28;20048;-74
2023/06/04 03:03:01;;;;;;;5.45;3.30;;;;;;;11.43;83.80;102202.81;5038824;28;20374;-74
2023/06/04 03:05:27;;;;;;;8.07;2.42;;;;;;;11.40;84.05;102205.06;5033931;28;20167;-74
2023/06/04 03:07:53;;;;;;;7.80;2.37;;;;;;;11.35;83.68;102197.34;5036629;28;20108;-74
2023/06/04 03:10:19;;;;;;;4.43;2.30;;;;;;;11.37;83.45;102211.72;5036329;28;20148;-74
2023/06/04 03:12:44;;;;;;;8.40;2.55;;;;;;;11.31;84.14;102209.66;5021096;28;20358;-74
2023/06/04 03:15:10;;;;;;;4.10;2.63;;;;;;;11.33;83.97;102206.78;5035726;28;20362;-75
2023/06/04 03:17:36;;;;;;;3.07;2.77;;;;;;;11.27;84.14;102199.22;5066905;28;20025;-75
2023/06/04 03:20:03;;;;;;;4.27;2.53;;;;;;;11.34;83.87;102203.84;5038552;28;20053;-74
2023/06/04 03:22:29;;;;;;;2.60;2.20;;;;;;;11.32;83.87;102196.81;5030327;28;20029;-75
2023/06/04 03:24:54;;;;;;;5.80;2.97;;;;;;;11.29;83.54;102197.16;5037688;28;20039;-75
2023/06/04 03:27:20;;;;;;;3.37;2.40;;;;;;;11.25;83.78;102202.13;5035270;28;20037;-75
2023/06/04 03:29:45;;;;;;;6.75;2.55;;;;;;;11.27;83.20;102197.31;5036242;28;20556;-75
2023/06/04 03:32:12;;;;;;;4.13;2.50;;;;;;;11.25;83.39;102207.59;5064029;28;20037;-75
2023/06/04 03:34:37;;;;;;;6.40;2.50;;;;;;;11.23;83.33;102204.19;5069991;28;20440;-75
2023/06/04 03:37:03;;;;;;;3.90;2.40;;;;;;;11.23;83.62;102201.44;5036013;28;20052;-75
2023/06/04 03:39:29;;;;;;;9.20;2.10;;;;;;;11.14;83.41;102207.06;5037665;28;20485;-75
2023/06/04 03:41:55;;;;;;;12.33;3.20;;;;;;;11.11;83.82;102204.66;5030106;28;20536;-75
2023/06/04 03:44:21;;;;;;;5.00;2.60;;;;;;;11.12;84.20;102207.25;5037150;28;20036;-76
2023/06/04 03:46:47;;;;;;;3.33;2.72;;;;;;;11.11;83.57;102205.50;5038181;28;20033;-75
2023/06/04 03:49:13;;;;;;;4.43;2.50;;;;;;;11.13;83.61;102219.06;5037035;28;20095;-75
2023/06/04 03:51:40;;;;;;;2.60;2.20;;;;;;;11.13;83.89;102214.44;5031769;28;20045;-75
2023/06/04 03:54:05;;;;;;;4.40;2.50;;;;;;;11.10;84.15;102208.44;5034063;28;20480;-75
2023/06/04 03:56:31;;;;;;;5.17;2.40;;;;;;;11.10;83.73;102209.28;5032404;28;20109;-75
2023/06/04 03:58:57;;;;;;;6.13;2.10;;;;;;;11.11;83.29;102210.16;5032031;28;20039;-74
2023/06/04 04:01:25;;;;;;;8.10;2.47;;;;;;;11.06;83.56;102210.63;5035120;28;20038;-76
2023/06/04 04:03:52;;;;;;;6.15;2.20;;;;;;;11.12;83.48;102217.34;5035283;28;20034;-76
2023/06/04 04:06:18;;;;;;;8.02;3.28;;;;;;;11.16;83.19;102213.25;5025847;28;20025;-75
2023/06/04 04:08:44;;;;;;;4.27;2.43;;;;;;;11.17;82.89;102212.22;5034197;28;20386;-77
2023/06/04 04:11:13;;;;;;;7.70;2.17;;;;;;;11.13;82.87;102210.81;5030865;28;20527;-75
2023/06/04 04:13:38;;;;;;;4.72;1.80;;;;;;;11.17;83.07;102220.44;5030877;28;20075;-73
2023/06/04 04:16:04;;;;;;;5.50;2.20;;;;;;;11.17;82.55;102218.56;5032735;28;20026;-72
2023/06/04 04:18:33;;;;;;;5.28;2.05;;;;;;;11.23;81.81;102223.38;5037434;28;20388;-75
2023/06/04 04:20:58;;;;;;;3.97;2.33;;;;;;;11.27;81.50;102218.41;5036426;28;20503;-75
2023/06/04 04:23:24;;;;;;;2.87;2.37;;;;;;;11.24;82.21;102210.50;5035754;28;20029;-75
2023/06/04 04:25:50;;;;;;;4.70;2.23;;;;;;;11.29;81.75;102219.09;5034161;28;20032;-75
2023/06/04 04:28:17;;;;;;;4.00;2.20;;;;;;;11.29;81.43;102210.88;5038454;28;20404;-76
2023/06/04 04:30:44;;;;;;;3.50;1.92;;;;;;;11.34;81.40;102213.97;5037073;28;20100;-76
2023/06/04 04:33:10;;;;;;;;;;;;;;;11.38;81.37;102212.59;5037153;28;20029;-76
2023/06/04 04:35:35;;;;;;;5.97;2.20;;;;;;;11.34;80.71;102208.47;5039915;28;19909;-76
2023/06/04 04:38:03;;;;;;;5.00;2.73;;;;;;;11.39;80.82;102215.19;5038936;28;20249;-76
2023/06/04 04:40:30;;;;;;;8.55;3.13;;;;;;;11.47;80.25;102201.47;5040465;28;20028;-76
2023/06/04 04:42:56;;;;;;;6.85;3.20;;;;;;;11.52;80.16;102209.22;5039727;28;20025;-76
2023/06/04 04:45:21;;;;;;;7.30;2.23;;;;;;;11.57;80.51;102207.66;5031138;28;20468;-76
2023/06/04 04:47:47;;;;;;;5.97;2.70;;;;;;;11.54;80.76;102207.13;5037587;28;20369;-75
2023/06/04 04:50:13;;;;;;;3.47;2.17;;;;;;;11.59;79.91;102205.63;5043183;28;20040;-76
2023/06/04 04:52:39;;;;;;;5.20;1.90;;;;;;;11.71;79.08;102195.16;5039102;28;20060;-75
2023/06/04 04:55:04;;;;;;;7.53;2.97;;;;;;;11.70;79.46;102207.19;5041507;28;20029;-75
2023/06/04 04:57:30;;;;;;;5.47;2.08;;;;;;;11.82;79.21;102203.91;5030065;28;20388;-75
2023/06/04 04:59:55;;;;;;;4.40;2.17;;;;;;;11.83;78.46;102193.78;5038697;28;20037;-75
2023/06/04 05:02:21;;;;;;;7.80;2.10;;;;;;;11.97;78.38;102196.72;5024122;28;20021;-75
2023/06/04 05:04:46;;;;;;;3.83;1.93;;;;;;;12.09;78.01;102194.44;5037315;28;20112;-75
2023/06/04 05:07:12;;;;;;;6.50;2.07;;;;;;;12.17;76.38;102198.03;5027434;28;20045;-75
2023/06/04 05:09:37;;;;;;;5.83;1.90;;;;;;;12.44;74.95;102207.78;5039863;28;20514;-75
2023/06/04 05:12:03;;;;;;;2.40;1.83;;;;;;;12.71;74.61;102210.09;5031562;28;20048;-74
2023/06/04 05:14:28;;;;;;;8.87;2.00;;;;;;;13.49;71.79;102200.72;5032251;28;20033;-75
2023/06/04 05:16:56;;;;;;;5.83;1.93;;;;;;;14.28;68.63;102207.44;5030871;28;20061;-76
2023/06/04 05:19:22;;;;;;;5.03;2.15;;;;;;;15.25;64.02;102216.22;5039741;28;20029;-75
2023/06/04 05:21:48;;;;;;;3.20;2.10;;;;;;;16.04;62.88;102213.28;5039060;28;20025;-76
2023/06/04 05:24:14;;;;;;;9.43;2.85;;;;;;;16.90;59.23;102213.69;5034368;28;20035;-75
2023/06/04 05:26:40;;;;;;;2.10;1.80;;;;;;;17.39;57.09;102217.13;5034854;28;20468;-75
2023/06/04 05:29:05;;;;;;;5.60;1.80;;;;;;;17.98;55.70;102212.53;5038218;28;20557;-71
2023/06/04 05:31:34;;;;;;;4.27;2.10;;;;;;;18.56;54.17;102216.41;5036206;28;20029;-71
2023/06/04 05:34:06;;;;;;;5.75;1.70;;;;;;;18.72;52.67;102210.38;5030188;28;20021;-71
2023/06/04 05:36:32;;;;;;;2.35;1.70;;;;;;;19.00;50.83;102222.03;5040215;28;20033;-71
2023/06/04 05:38:57;;;;;;;4.77;1.80;;;;;;;19.30;50.36;102229.66;5035725;28;20388;-71
2023/06/04 05:41:28;;;;;;;8.73;1.98;;;;;;;19.32;49.67;102235.00;5040149;28;20057;-70
2023/06/04 05:43:54;;;;;;;5.68;1.95;;;;;;;19.54;50.10;102228.88;5032098;28;20029;-71
2023/06/04 05:46:19;;;;;;;3.77;1.90;;;;;;;19.65;49.10;102225.41;5039091;28;20032;-71
2023/06/04 05:48:45;;;;;;;3.20;2.07;;;;;;;19.75;48.93;102222.13;5037706;28;20021;-71
2023/06/04 05:51:13;;;;;;;13.33;2.40;;;;;;;20.26;47.43;102222.81;5031328;28;20033;-71
2023/06/04 05:53:38;;;;;;;4.45;2.05;;;;;;;20.15;48.78;102223.56;5032780;28;20370;-71
2023/06/04 05:56:04;;;;;;;3.10;2.00;;;;;;;20.31;47.61;102228.56;5032326;28;20037;-71
2023/06/04 05:58:29;;;;;;;5.70;2.10;;;;;;;21.00;47.35;102227.25;5034008;28;20036;-71
2023/06/04 06:00:55;;;;;;;6.80;1.83;;;;;;;21.10;45.23;102215.56;5035474;28;20294;-71
2023/06/04 06:03:21;;;;;;;5.17;1.77;;;;;;;21.16;45.74;102221.06;5038138;28;20477;-72
2023/06/04 06:05:46;;;;;;;;;;;;;;;21.42;44.42;102228.22;5039939;28;20025;-73
2023/06/04 06:08:14;;;;;;;8.55;2.00;;;;;;;21.15;45.24;102230.50;5039604;28;20345;-73
2023/06/04 06:10:39;;;;;;;4.85;2.10;;;;;;;20.62;46.20;102228.50;5036344;28;20026;-73
2023/06/04 06:13:04;;;;;;;6.97;2.10;;;;;;;20.98;46.87;102234.13;5032532;28;20025;-73
2023/06/04 06:15:30;;;;;;;3.77;1.60;;;;;;;21.17;45.28;102221.88;5035064;28;20373;-73
2023/06/04 06:17:55;;;;;;;4.67;1.90;;;;;;;21.31;45.97;102229.00;5034591;28;20033;-73
2023/06/04 06:20:21;;;;;;;5.03;2.03;;;;;;;21.24;44.29;102223.50;5040500;28;20037;-74
2023/06/04 06:22:47;;;;;;;5.90;1.92;;;;;;;21.37;45.89;102222.50;5028450;28;20041;-74
2023/06/04 06:25:13;;;;;;;4.75;2.17;;;;;;;22.02;43.86;102232.72;5035616;28;20026;-74
2023/06/04 06:27:39;;;;;;;5.50;1.97;;;;;;;21.37;44.45;102225.28;5031414;28;20377;-72
2023/06/04 06:30:07;;;;;;;7.13;1.90;;;;;;;21.45;45.96;102236.13;5032063;28;20112;-72
2023/06/04 06:32:33;;;;;;;5.03;2.20;;;;;;;21.98;44.17;102235.16;5032391;28;20102;-74
2023/06/04 06:34:58;;;;;;;5.50;2.10;;;;;;;22.09;43.81;102245.50;5039290;28;20476;-72
2023/06/04 06:37:23;;;;;;;6.13;2.00;;;;;;;21.52;44.80;102240.53;5038754;28;20056;-72
2023/06/04 06:39:49;;;;;;;10.77;2.17;;;;;;;22.62;44.13;102245.50;5041014;28;20025;-72
2023/06/04 06:42:16;;;;;;;4.55;1.88;;;;;;;22.80;42.90;102242.56;5031798;28;20500;-73
2023/06/04 06:44:42;;;;;;;4.82;2.08;;;;;;;22.64;41.32;102248.88;5037724;28;20477;-73
2023/06/04 06:47:07;;;;;;;5.05;2.20;;;;;;;22.58;43.01;102252.66;5033548;28;20025;-73
2023/06/04 06:49:33;;;;;;;3.70;1.90;;;;;;;22.43;43.29;102241.06;5037772;28;20037;-73
2023/06/04 06:51:58;;;;;;;6.87;2.33;;;;;;;22.31;42.71;102248.59;5036172;28;20386;-72
2023/06/04 06:54:24;;;;;;;7.40;1.83;;;;;;;22.95;42.52;102251.31;5038196;28;20033;-72
2023/06/04 06:56:50;;;;;;;4.10;2.07;;;;;;;23.17;42.27;102253.28;5029985;28;20121;-73
2023/06/04 06:59:15;;;;;;;;;;;;;;;23.32;41.02;102258.34;5033797;28;20026;-74
2023/06/04 07:01:41;;;;;;;4.97;2.10;;;;;;;22.55;42.00;102256.78;5029346;28;20376;-72
2023/06/04 07:04:07;;;;;;;2.40;1.80;;;;;;;21.35;42.94;102252.56;5034112;28;20029;-72
2023/06/04 07:06:33;;;;;;;3.40;1.65;;;;;;;21.69;44.40;102257.47;5032870;28;20018;-69
2023/06/04 07:08:59;;;;;;;6.15;2.10;;;;;;;22.23;43.71;102266.53;5034981;28;20036;-70
2023/06/04 07:11:25;;;;;;;7.15;2.05;;;;;;;21.62;43.08;102265.06;5025819;28;20405;-70
2023/06/04 07:13:51;;;;;;;7.00;2.20;;;;;;;21.85;44.70;102262.41;5032555;28;20372;-70
2023/06/04 07:16:17;;;;;;;5.07;1.90;;;;;;;22.17;42.44;102258.25;5027933;28;20312;-70
2023/06/04 07:18:43;;;;;;;5.60;2.00;;;;;;;22.41;43.11;102260.84;5031347;28;20029;-69
2023/06/04 07:21:08;;;;;;;5.33;2.30;;;;;;;22.83;42.73;102258.88;5017006;28;20026;-70
2023/06/04 07:23:34;;;;;;;6.33;2.27;;;;;;;22.07;43.38;102263.56;5030759;28;20032;-71
2023/06/04 07:25:59;;;;;;;3.23;2.30;;;;;;;22.19;43.14;102250.50;5034104;28;20029;-70
2023/06/04 07:28:25;;;;;;;2.80;1.90;;;;;;;21.76;44.01;102263.84;5024535;28;20029;-70
2023/06/04 07:30:50;;;;;;;7.57;2.40;;;;;;;21.69;44.87;102257.47;5025142;28;20071;-70
2023/06/04 07:33:16;;;;;;;9.07;2.20;;;;;;;21.52;45.00;102254.47;5029065;28;20400;-69
2023/06/04 07:35:41;;;;;;;6.07;2.40;;;;;;;21.60;45.19;102253.31;5032166;28;20489;-70
2023/06/04 07:38:07;;;;;;;9.70;3.30;;;;;;;22.00;44.59;102258.09;5025530;28;20040;-72
2023/06/04 07:40:32;;;;;;;9.97;3.50;;;;;;;21.71;44.93;102252.53;5026457;28;22171;-72
2023/06/04 07:42:57;;;;;;;7.97;2.57;;;;;;;21.72;45.33;102246.69;5033879;28;20037;-72
2023/06/04 07:45:23;;;;;;;6.93;2.13;;;;;;;21.27;46.90;102253.72;5023197;28;20115;-73
2023/06/04 07:47:48;;;;;;;4.80;2.13;;;;;;;20.87;47.42;102248.81;5032670;28;20037;-73
2023/06/04 07:50:13;;;;;;;16.40;2.20;;;;;;;21.07;47.67;102261.47;5037352;28;20021;-73
2023/06/04 07:52:39;;;;;;;6.50;2.50;;;;;;;20.87;48.11;102258.00;5039425;28;20064;-72
2023/06/04 07:55:05;;;;;;;4.27;2.10;;;;;;;21.12;46.83;102258.00;5038476;28;20037;-72
2023/06/04 07:57:31;;;;;;;7.55;2.28;;;;;;;21.78;46.70;102256.91;5032087;28;20037;-73
2023/06/04 07:59:57;;;;;;;4.45;2.17;;;;;;;21.12;45.98;102263.56;5040290;28;20030;-73
2023/06/04 08:02:22;;;;;;;5.10;2.33;;;;;;;20.83;46.76;102259.56;5037973;28;20651;-73
2023/06/04 08:04:47;;;;;;;3.87;1.73;;;;;;;20.71;48.08;102274.47;5041428;28;20071;-73
2023/06/04 08:07:13;;;;;;;6.80;2.13;;;;;;;21.07;46.75;102264.25;5037727;28;20524;-73
2023/06/04 08:09:38;;;;;;;10.93;2.20;;;;;;;20.85;47.30;102267.66;4988418;28;20054;-72
2023/06/04 08:12:04;;;;;;;3.87;2.67;;;;;;;20.36;48.24;102262.13;4956690;28;22347;-73
2023/06/04 08:14:31;;;;;;;6.57;2.20;;;;;;;20.84;48.15;102264.03;4969900;28;20082;-73
2023/06/04 08:16:57;;;;;;;6.47;2.08;;;;;;;21.01;47.42;102261.53;4968756;28;20034;-72
2023/06/04 08:19:23;;;;;;;6.22;2.42;;;;;;;20.88;47.49;102262.50;4960522;28;20046;-72
2023/06/04 08:21:49;;;;;;;6.28;2.17;;;;;;;20.74;48.22;102272.06;4966851;28;20118;-73
2023/06/04 08:24:15;;;;;;;8.03;1.70;;;;;;;21.06;47.09;102270.03;4966275;28;20102;-74
2023/06/04 08:26:40;;;;;;;4.37;2.17;;;;;;;20.98;46.85;102270.38;4968032;28;20281;-73
2023/06/04 08:29:06;;;;;;;9.40;2.23;;;;;;;21.14;47.06;102266.97;4963814;28;20134;-73
2023/06/04 08:31:32;;;;;;;3.83;1.97;;;;;;;21.11;46.82;102273.00;4964515;28;20031;-73
2023/06/04 08:33:57;;;;;;;6.75;1.88;;;;;;;21.05;46.96;102268.34;5017777;28;20030;-72
2023/06/04 08:36:23;;;;;;;7.77;2.17;;;;;;;21.01;47.02;102273.53;5009867;28;20045;-73
2023/06/04 08:38:52;;;;;;;10.03;2.47;;;;;;;20.90;47.92;102271.50;5006887;28;20413;-73
2023/06/04 08:41:17;;;;;;;3.80;2.05;;;;;;;21.49;46.58;102276.38;4996368;28;20046;-70
2023/06/04 08:43:46;;;;;;;5.53;2.07;;;;;;;21.39;45.69;102262.16;4997034;28;20478;-69
2023/06/04 08:46:13;;;;;;;3.22;2.00;;;;;;;21.04;45.15;102275.00;5017595;28;20407;-71
2023/06/04 08:48:39;;;;;;;5.57;1.90;;;;;;;21.08;45.81;102273.47;5005693;28;20029;-71
2023/06/04 08:51:08;;;;;;;5.10;2.10;;;;;;;21.27;45.80;102273.25;5003876;28;20033;-71
2023/06/04 08:53:34;;;;;;;4.88;1.90;;;;;;;21.15;45.45;102271.44;5002989;28;20271;-71
2023/06/04 08:56:00;;;;;;;4.83;2.17;;;;;;;21.27;45.22;102278.81;5002189;28;20042;-71
2023/06/04 08:58:27;;;;;;;12.07;2.05;;;;;;;21.59;44.58;102282.25;5018970;28;20046;-71
2023/06/04 09:00:53;;;;;;;3.25;1.80;;;;;;;21.58;44.91;102280.56;5007206;28;20785;-71
2023/06/04 09:03:20;;;;;;;6.10;2.00;;;;;;;21.88;44.25;102278.69;4999295;28;20026;-71
2023/06/04 09:05:49;;;;;;;6.38;2.10;;;;;;;21.62;44.07;102281.81;4997272;28;20037;-71
2023/06/04 09:08:18;;;;;;;5.10;1.85;;;;;;;21.84;43.58;102271.88;4994920;28;20026;-70
2023/06/04 09:10:49;;;;;;;3.70;1.92;;;;;;;21.69;43.45;102289.03;5018297;28;20026;-71
2023/06/04 09:13:17;;;;;;;8.07;2.10;;;;;;;21.65;44.05;102287.75;4999720;28;20026;-70
2023/06/04 09:15:42;;;;;;;8.80;2.10;;;;;;;22.01;43.56;102290.50;4996026;28;20080;-70
2023/06/04 09:18:07;;;;;;;4.73;1.77;;;;;;;22.20;43.43;102291.28;4995322;28;20030;-72
2023/06/04 09:20:33;;;;;;;5.20;2.30;;;;;;;22.14;43.24;102295.03;5000459;28;20026;-71
2023/06/04 09:22:58;;;;;;;7.80;1.67;;;;;;;22.23;42.89;102286.06;4992923;28;20065;-72
2023/06/04 09:25:27;;;;;;;5.53;1.60;;;;;;;22.21;41.60;102295.78;5000498;28;20044;-72
2023/06/04 09:27:55;;;;;;;6.93;1.77;;;;;;;22.22;41.39;102297.47;5008091;28;20081;-70
2023/06/04 09:30:21;;;;;;;3.53;1.83;;;;;;;22.39;41.67;102301.28;5006734;28;20438;-71
2023/06/04 09:32:46;;;;;;;2.72;1.88;;;;;;;22.15;42.57;102293.94;4997805;28;20125;-69
2023/06/04 09:35:17;;;;;;;4.07;1.90;;;;;;;22.33;42.08;102291.94;4994089;28;20124;-69
2023/06/04 09:37:51;;;;;;;5.05;2.28;;;;;;;22.46;41.37;102283.34;4998632;28;20080;-70
2023/06/04 09:40:17;;;;;;;3.58;1.77;;;;;;;22.50;41.47;102287.38;4999631;28;20069;-70
2023/06/04 09:42:44;;;;;;;6.40;1.83;;;;;;;22.61;42.33;102288.47;5001509;28;20485;-69
2023/06/04 09:45:10;;;;;;;3.33;1.60;;;;;;;23.07;40.58;102268.91;5001675;28;20026;-70
2023/06/04 09:47:39;;;;;;;5.33;1.80;;;;;;;22.99;40.24;102284.13;4999559;28;20041;-69
2023/06/04 09:50:06;;;;;;;2.10;1.58;;;;;;;23.01;40.44;102283.88;5014821;28;20450;-69
2023/06/04 09:52:35;;;;;;;6.55;2.00;;;;;;;22.73;40.56;102290.19;5001827;28;20047;-69
2023/06/04 09:55:00;;;;;;;7.25;1.58;;;;;;;23.25;39.58;102289.22;5001103;28;20388;-70
2023/06/04 09:57:29;;;;;;;8.10;1.70;;;;;;;23.15;39.06;102290.94;5001927;28;20029;-69
2023/06/04 09:59:56;;;;;;;6.18;1.58;;;;;;;23.27;38.72;102284.22;5001705;28;20034;-71
2023/06/04 10:02:22;;;;;;;5.18;1.73;;;;;;;23.41;38.32;102296.88;5001522;28;20526;-72
2023/06/04 10:04:58;;;;;;;6.28;1.70;;;;;;;23.39;37.93;102298.22;4999898;28;20018;-72
2023/06/04 10:07:25;;;;;;;3.47;1.65;;;;;;;23.71;37.11;102286.31;5014741;28;20045;-72
2023/06/04 10:09:51;;;;;;;4.97;1.73;;;;;;;24.08;38.38;102292.41;5026947;28;20041;-72
2023/06/04 10:12:24;;;;;;;6.72;2.25;;;;;;;23.91;36.91;102281.13;5004684;28;20116;-71
2023/06/04 10:14:59;;;;;;;7.63;1.50;;;;;;;23.99;38.16;102277.97;4998738;28;20026;-72
2023/06/04 10:17:27;;;;;;;6.95;1.35;;;;;;;23.95;37.57;102275.91;4997723;28;20394;-70
2023/06/04 10:19:54;;;;;;;2.17;1.45;;;;;;;23.65;36.08;102284.53;5016456;28;20033;-69
2023/06/04 10:22:20;;;;;;;2.90;1.48;;;;;;;23.69;36.64;102280.09;5002915;28;20029;-69
2023/06/04 10:24:46;;;;;;;;;;;;;;;23.67;37.29;102281.44;5010819;28;20117;-70
2023/06/04 10:27:12;;;;;;;3.78;1.20;;;;;;;23.98;35.91;102286.59;5005657;28;20103;-71
2023/06/04 10:29:39;;;;;;;2.65;1.40;;;;;;;24.26;36.05;102286.56;5002071;28;20438;-71
2023/06/04 10:32:05;;;;;;;2.10;1.15;;;;;;;23.87;35.15;102285.53;5001720;28;20030;-71
2023/06/04 10:34:31;;;;;;;3.38;1.60;;;;;;;24.04;35.09;102288.41;5004332;28;20041;-71
2023/06/04 10:36:56;;;;;;;5.50;1.38;;;;;;;24.20;34.76;102287.56;5000012;28;20041;-71
2023/06/04 10:39:29;;;;;;;5.07;1.98;;;;;;;24.53;34.87;102287.59;4998962;28;20041;-71
2023/06/04 10:42:02;;;;;;;5.13;1.65;;;;;;;24.47;32.85;102283.03;5018939;28;20049;-72
2023/06/04 10:44:30;;;;;;;5.65;1.45;;;;;;;24.12;33.47;102285.19;5012428;28;20048;-71
2023/06/04 10:46:57;;;;;;;1.98;1.20;;;;;;;24.40;33.77;102286.00;5000572;28;20495;-70
2023/06/04 10:49:27;;;;;;;;;;;;;;;24.58;32.65;102282.97;5007620;28;20049;-70
2023/06/04 10:51:52;;;;;;;2.03;1.20;;;;;;;24.56;33.74;102284.31;4997737;28;20382;-69
2023/06/04 10:54:27;;;;;;;1.83;1.00;;;;;;;24.43;32.88;102293.88;5000289;28;20102;-70
2023/06/04 10:56:55;;;;;;;2.00;1.38;;;;;;;24.50;31.81;102274.94;4999988;28;20033;-69
2023/06/04 10:59:21;;;;;;;2.25;1.38;;;;;;;24.90;30.93;102280.41;5002806;28;20025;-69
2023/06/04 11:01:47;;;;;;;5.88;1.10;;;;;;;24.85;30.86;102288.72;4994070;28;20610;-69
2023/06/04 11:04:20;;;;;;;5.47;1.40;;;;;;;25.12;30.72;102281.31;5005578;28;20060;-69
2023/06/04 11:06:46;;;;;;;3.25;1.40;;;;;;;24.98;30.41;102280.81;5002385;28;20056;-69
2023/06/04 11:09:16;;;;;;;1.80;1.20;;;;;;;25.10;31.69;102280.72;5030695;28;20500;-69
2023/06/04 11:11:43;;;;;;;4.40;1.17;;;;;;;25.12;30.87;102284.13;4996748;28;20022;-70
2023/06/04 11:14:09;;;;;;;;;;;;;;;24.45;31.06;102296.44;4999708;28;20478;-70
2023/06/04 11:16:34;;;;;;;4.50;1.30;;;;;;;24.87;32.25;102275.31;4996189;28;19920;-69
2023/06/04 11:19:00;;;;;;;9.50;1.57;;;;;;;25.41;30.89;102277.25;5017402;28;20029;-70
2023/06/04 11:21:25;;;;;;;2.83;1.10;;;;;;;25.33;30.33;102274.88;4996908;28;20635;-71
2023/06/04 11:24:00;;;;;;;3.73;1.30;;;;;;;24.92;29.89;102267.81;4996659;28;20057;-72